createdAt,value
2022-11-22T00:00:45.735Z,77.20
2022-11-22T00:03:12.741Z,77.32
2022-11-22T00:05:40.045Z,77.30
2022-11-22T00:08:07.787Z,77.69
2022-11-22T00:10:34.910Z,77.54
2022-11-22T00:13:03.271Z,77.24
2022-11-22T00:15:30.786Z,77.49
2022-11-22T00:17:58.064Z,77.10
2022-11-22T00:20:25.555Z,77.13
2022-11-22T00:22:53.116Z,77.29
2022-11-22T00:25:20.147Z,77.79
2022-11-22T00:27:47.281Z,77.79
2022-11-22T00:30:14.489Z,77.62
2022-11-22T00:32:41.467Z,77.76
2022-11-22T00:35:08.874Z,77.89
2022-11-22T00:37:35.816Z,77.67
2022-11-22T00:40:02.921Z,77.82
2022-11-22T00:42:29.974Z,77.92
2022-11-22T00:44:56.996Z,77.73
2022-11-22T00:47:24.111Z,78.15
2022-11-22T00:49:51.150Z,78.15
2022-11-22T00:52:18.005Z,78.09
2022-11-22T00:54:48.823Z,78.13
2022-11-22T00:57:20.130Z,78.16
2022-11-22T00:59:52.242Z,78.03
2022-11-22T01:02:19.173Z,77.93
2022-11-22T01:04:46.204Z,77.74
2022-11-22T01:07:16.143Z,78.06
2022-11-22T01:09:43.135Z,78.21
2022-11-22T01:12:10.111Z,77.87
2022-11-22T01:14:37.041Z,78.38
2022-11-22T01:17:04.376Z,78.30
2022-11-22T01:19:31.439Z,78.48
2022-11-22T01:21:59.145Z,78.29
2022-11-22T01:24:26.164Z,78.63
2022-11-22T01:26:53.482Z,78.93
2022-11-22T01:29:20.407Z,78.77
2022-11-22T01:31:47.436Z,78.57
2022-11-22T01:34:14.922Z,78.68
2022-11-22T01:36:41.967Z,77.82
2022-11-22T01:39:08.993Z,78.47
2022-11-22T01:41:36.293Z,78.34
2022-11-22T01:44:32.717Z,78.44
2022-11-22T01:47:13.969Z,78.56
2022-11-22T01:49:43.735Z,78.20
2022-11-22T01:52:18.942Z,78.60
2022-11-22T01:55:07.945Z,78.32
2022-11-22T01:57:39.085Z,78.39
2022-11-22T02:00:10.278Z,78.70
2022-11-22T02:02:38.076Z,78.40
2022-11-22T02:05:10.273Z,78.69
2022-11-22T02:07:45.688Z,78.46
2022-11-22T02:10:13.673Z,78.28
2022-11-22T02:12:41.351Z,78.43
2022-11-22T02:15:08.980Z,78.45
2022-11-22T02:17:35.895Z,78.51
2022-11-22T02:20:04.628Z,78.18
2022-11-22T02:22:50.020Z,78.52
2022-11-22T02:25:28.133Z,78.57
2022-11-22T02:27:55.449Z,78.59
2022-11-22T02:30:22.858Z,78.20
2022-11-22T02:32:49.988Z,77.78
2022-11-22T02:35:24.104Z,78.36
2022-11-22T02:37:56.977Z,78.45
2022-11-22T02:40:25.738Z,78.48
2022-11-22T02:43:17.556Z,78.79
2022-11-22T02:45:44.557Z,78.52
2022-11-22T02:48:17.403Z,78.35
2022-11-22T02:50:45.284Z,78.54
2022-11-22T02:53:13.477Z,78.57
2022-11-22T02:55:40.991Z,78.66
2022-11-22T02:58:08.461Z,78.64
2022-11-22T03:00:37.489Z,78.65
2022-11-22T03:03:04.650Z,78.64
2022-11-22T03:05:31.786Z,79.23
2022-11-22T03:08:01.939Z,78.99
2022-11-22T03:10:28.887Z,78.10
2022-11-22T03:12:58.018Z,78.68
2022-11-22T03:15:24.931Z,78.62
2022-11-22T03:17:58.321Z,78.56
2022-11-22T03:20:25.700Z,78.63
2022-11-22T03:22:52.874Z,78.67
2022-11-22T03:25:20.001Z,78.51
2022-11-22T03:27:49.598Z,78.25
2022-11-22T03:30:16.749Z,78.42
2022-11-22T03:32:43.878Z,78.46
2022-11-22T03:35:11.243Z,79.04
2022-11-22T03:37:38.469Z,78.83
2022-11-22T03:40:06.146Z,78.93
2022-11-22T03:42:33.123Z,78.50
2022-11-22T03:45:00.067Z,78.08
2022-11-22T03:47:26.962Z,78.72
2022-11-22T03:49:54.281Z,78.71
2022-11-22T03:52:21.241Z,78.86
2022-11-22T03:54:48.214Z,78.52
2022-11-22T03:57:17.323Z,78.39
2022-11-22T03:59:44.424Z,79.05
2022-11-22T04:02:11.433Z,78.77
2022-11-22T04:04:38.441Z,78.96
2022-11-22T04:07:07.430Z,78.82
2022-11-22T04:09:34.620Z,78.55
2022-11-22T04:12:01.891Z,78.49
2022-11-22T04:14:47.369Z,78.48
2022-11-22T04:17:14.882Z,78.51
2022-11-22T04:20:01.930Z,78.25
2022-11-22T04:22:28.874Z,78.41
2022-11-22T04:25:14.408Z,78.02
2022-11-22T04:27:41.755Z,78.81
2022-11-22T04:30:08.958Z,78.72
2022-11-22T04:32:48.058Z,79.04
2022-11-22T04:35:16.809Z,78.75
2022-11-22T04:37:43.905Z,78.76
2022-11-22T04:40:11.128Z,78.97
2022-11-22T04:42:56.493Z,78.63
2022-11-22T04:45:23.591Z,78.57
2022-11-22T04:47:59.358Z,78.60
2022-11-22T04:50:48.441Z,78.10
2022-11-22T04:53:17.321Z,78.79
2022-11-22T04:55:47.042Z,78.62
2022-11-22T04:58:14.835Z,78.89
2022-11-22T05:00:41.935Z,78.78
2022-11-22T05:03:09.066Z,78.97
2022-11-22T05:05:41.497Z,79.37
2022-11-22T05:08:09.925Z,79.04
2022-11-22T05:10:56.495Z,78.76
2022-11-22T05:13:32.761Z,78.65
2022-11-22T05:16:01.013Z,78.55
2022-11-22T05:18:28.887Z,78.34
2022-11-22T05:20:56.340Z,78.35
2022-11-22T05:23:42.836Z,78.47
2022-11-22T05:26:11.036Z,78.65
2022-11-22T05:28:39.556Z,78.67
2022-11-22T05:31:18.420Z,78.85
2022-11-22T05:33:46.754Z,78.76
2022-11-22T05:36:13.804Z,78.59
2022-11-22T05:38:42.325Z,78.60
2022-11-22T05:41:11.609Z,78.68
2022-11-22T05:43:39.265Z,78.46
2022-11-22T05:46:14.598Z,78.67
2022-11-22T05:48:45.933Z,78.16
2022-11-22T05:51:17.332Z,78.37
2022-11-22T05:53:45.267Z,78.86
2022-11-22T05:56:15.315Z,78.59
2022-11-22T05:58:42.814Z,78.71
2022-11-22T06:01:16.383Z,78.54
2022-11-22T06:03:44.159Z,78.60
2022-11-22T06:06:11.769Z,78.18
2022-11-22T06:08:47.060Z,78.44
2022-11-22T06:11:25.895Z,78.67
2022-11-22T06:13:55.806Z,78.53
2022-11-22T06:16:23.288Z,78.31
2022-11-22T06:18:50.776Z,78.70
2022-11-22T06:21:20.813Z,78.27
2022-11-22T06:23:47.766Z,78.18
2022-11-22T06:26:17.971Z,78.89
2022-11-22T06:28:46.312Z,78.70
2022-11-22T06:31:14.295Z,78.80
2022-11-22T06:33:42.317Z,78.55
2022-11-22T06:36:14.907Z,78.84
2022-11-22T06:38:43.229Z,78.63
2022-11-22T06:41:15.940Z,78.80
2022-11-22T06:43:48.783Z,78.45
2022-11-22T06:46:22.478Z,78.87
2022-11-22T06:48:50.245Z,78.54
2022-11-22T06:51:20.447Z,78.77
2022-11-22T06:53:49.340Z,78.85
2022-11-22T06:56:21.093Z,79.04
2022-11-22T06:58:49.834Z,79.34
2022-11-22T07:01:19.664Z,79.20
2022-11-22T07:03:47.886Z,79.97
2022-11-22T07:06:17.302Z,80.24
2022-11-22T07:08:45.201Z,80.41
2022-11-22T07:11:20.641Z,80.18
2022-11-22T07:13:49.167Z,80.08
2022-11-22T07:16:19.830Z,80.53
2022-11-22T07:18:48.202Z,80.84
2022-11-22T07:21:23.283Z,80.68
2022-11-22T07:23:52.812Z,80.69
2022-11-22T07:26:21.567Z,80.83
2022-11-22T07:28:49.316Z,80.43
2022-11-22T07:31:17.618Z,80.38
2022-11-22T07:33:45.126Z,80.26
2022-11-22T07:36:13.172Z,79.40
2022-11-22T07:38:40.272Z,79.91
2022-11-22T07:41:08.668Z,80.29
2022-11-22T07:43:35.890Z,80.54
2022-11-22T07:46:06.213Z,80.87
2022-11-22T07:48:33.701Z,80.98
2022-11-22T07:51:05.980Z,81.20
2022-11-22T07:53:33.700Z,80.55
2022-11-22T07:56:05.183Z,81.55
2022-11-22T07:58:33.283Z,81.64
2022-11-22T08:01:11.738Z,81.88
2022-11-22T08:03:39.518Z,81.54
2022-11-22T08:06:08.719Z,81.76
2022-11-22T08:08:36.561Z,82.28
2022-11-22T08:11:04.576Z,81.89
2022-11-22T08:13:32.642Z,81.15
2022-11-22T08:16:06.306Z,80.98
2022-11-22T08:18:35.578Z,80.62
2022-11-22T08:21:12.475Z,80.48
2022-11-22T08:23:40.493Z,79.96
2022-11-22T08:26:09.704Z,79.99
2022-11-22T08:28:36.869Z,79.87
2022-11-22T08:31:07.570Z,80.86
2022-11-22T08:33:34.664Z,81.28
2022-11-22T08:36:01.669Z,80.98
2022-11-22T08:38:28.921Z,81.05
2022-11-22T08:40:56.229Z,81.33
2022-11-22T08:43:23.237Z,80.85
2022-11-22T08:45:54.586Z,80.75
2022-11-22T08:48:22.750Z,80.59
2022-11-22T08:50:51.524Z,80.60
2022-11-22T08:53:18.699Z,80.45
2022-11-22T08:55:46.270Z,80.78
2022-11-22T08:58:13.407Z,80.73
2022-11-22T09:00:40.427Z,80.71
2022-11-22T09:03:07.559Z,80.89
2022-11-22T09:05:34.660Z,80.59
2022-11-22T09:10:48.912Z,80.20
2022-11-22T09:13:15.982Z,79.84
2022-11-22T09:15:43.269Z,78.85
2022-11-22T09:18:10.163Z,79.34
2022-11-22T09:20:37.150Z,79.14
2022-11-22T09:23:04.844Z,79.51
2022-11-22T09:25:31.929Z,79.44
2022-11-22T09:28:04.698Z,79.17
2022-11-22T09:30:31.861Z,80.06
2022-11-22T09:32:59.045Z,79.02
2022-11-22T09:35:26.574Z,78.88
2022-11-22T09:37:53.522Z,78.42
2022-11-22T09:40:20.558Z,77.96
2022-11-22T09:43:02.801Z,78.21
2022-11-22T09:45:33.661Z,77.51
2022-11-22T09:48:11.635Z,76.96
2022-11-22T09:51:02.942Z,77.25
2022-11-22T09:53:45.486Z,77.10
2022-11-22T09:56:14.057Z,77.87
2022-11-22T09:58:56.252Z,77.47
2022-11-22T10:01:32.315Z,77.99
2022-11-22T10:04:20.675Z,76.98
2022-11-22T10:06:54.016Z,76.78
2022-11-22T10:09:28.873Z,76.35
2022-11-22T10:12:03.027Z,76.36
2022-11-22T10:14:35.597Z,76.60
2022-11-22T10:17:08.285Z,76.31
2022-11-22T10:19:59.481Z,76.18
2022-11-22T10:22:29.912Z,76.25
2022-11-22T10:24:59.830Z,75.98
2022-11-22T10:27:32.809Z,75.90
2022-11-22T10:30:12.399Z,76.23
2022-11-22T10:33:01.116Z,75.59
2022-11-22T10:36:09.553Z,75.05
2022-11-22T10:38:53.060Z,74.85
2022-11-22T10:41:52.224Z,74.88
2022-11-22T10:44:31.034Z,75.22
2022-11-22T10:47:07.093Z,75.34
2022-11-22T10:49:55.133Z,75.16
2022-11-22T10:52:44.855Z,75.53
2022-11-22T10:55:40.245Z,74.94
2022-11-22T10:58:34.844Z,75.04
2022-11-22T11:01:16.695Z,74.59
2022-11-22T11:03:45.056Z,74.51
2022-11-22T11:06:43.569Z,75.19
2022-11-22T11:10:09.103Z,74.79
2022-11-22T11:12:10.994Z,74.91
2022-11-22T11:14:41.295Z,74.20
2022-11-22T11:17:08.351Z,74.40
2022-11-22T11:19:39.666Z,73.80
2022-11-22T11:22:09.684Z,73.19
2022-11-22T11:24:39.330Z,73.81
2022-11-22T11:27:07.366Z,73.62
2022-11-22T11:29:38.683Z,73.12
2022-11-22T11:32:11.800Z,73.05
2022-11-22T11:34:41.694Z,73.30
2022-11-22T11:37:24.195Z,73.18
2022-11-22T11:39:51.197Z,73.56
2022-11-22T11:42:44.533Z,73.35
2022-11-22T11:45:29.740Z,73.75
2022-11-22T11:47:56.835Z,74.02
2022-11-22T11:50:25.980Z,73.59
2022-11-22T11:53:16.453Z,73.42
2022-11-22T11:55:43.390Z,73.35
2022-11-22T11:58:22.147Z,74.02
2022-11-22T12:00:49.224Z,73.69
2022-11-22T12:03:17.954Z,73.72
2022-11-22T12:05:45.065Z,74.42
2022-11-22T12:08:32.928Z,74.08
2022-11-22T12:11:09.692Z,74.22
2022-11-22T12:14:19.694Z,74.03
2022-11-22T12:16:48.794Z,74.16
2022-11-22T12:19:39.906Z,73.31
2022-11-22T12:22:48.083Z,73.64
2022-11-22T12:25:34.004Z,73.50
2022-11-22T12:28:17.492Z,73.23
2022-11-22T12:30:46.150Z,73.59
2022-11-22T12:33:20.152Z,73.58
2022-11-22T12:35:48.913Z,74.24
2022-11-22T12:38:22.134Z,74.50
2022-11-22T12:40:52.261Z,74.08
2022-11-22T12:43:26.228Z,74.61
2022-11-22T12:45:55.914Z,74.70
2022-11-22T12:48:51.426Z,74.80
2022-11-22T12:51:18.735Z,74.80
2022-11-22T12:53:46.232Z,74.36
2022-11-22T12:56:33.889Z,74.47
2022-11-22T12:59:22.328Z,74.87
2022-11-22T13:01:55.062Z,75.20
2022-11-22T13:04:42.617Z,74.61
2022-11-22T13:07:18.210Z,75.28
2022-11-22T13:09:50.351Z,74.61
2022-11-22T13:12:23.651Z,74.87
2022-11-22T13:14:55.673Z,75.06
2022-11-22T13:17:24.415Z,74.99
2022-11-22T13:20:05.361Z,74.98
2022-11-22T13:22:50.604Z,75.69
2022-11-22T13:25:32.383Z,75.33
2022-11-22T13:28:02.237Z,75.61
2022-11-22T13:30:30.929Z,75.92
2022-11-22T13:32:59.816Z,76.19
2022-11-22T13:35:32.855Z,76.83
2022-11-22T13:38:06.094Z,77.36
2022-11-22T13:40:35.418Z,77.52
2022-11-22T13:43:21.182Z,77.86
2022-11-22T13:45:58.732Z,77.59
2022-11-22T13:48:40.881Z,77.40
2022-11-22T13:51:09.792Z,76.46
2022-11-22T13:53:47.262Z,76.93
2022-11-22T13:56:17.152Z,76.97
2022-11-22T13:58:52.571Z,76.50
2022-11-22T14:01:34.914Z,76.66
2022-11-22T14:04:17.141Z,77.17
2022-11-22T14:06:54.153Z,77.13
2022-11-22T14:09:34.847Z,77.29
2022-11-22T14:12:10.971Z,77.01
2022-11-22T14:14:50.407Z,77.07
2022-11-22T14:17:51.488Z,77.71
2022-11-22T14:20:56.131Z,77.75
2022-11-22T14:23:41.482Z,78.01
2022-11-22T14:26:21.043Z,77.97
2022-11-22T14:29:20.219Z,77.75
2022-11-22T14:32:04.991Z,78.46
2022-11-22T14:34:32.432Z,78.58
2022-11-22T14:37:15.472Z,78.74
2022-11-22T14:39:45.187Z,78.47
2022-11-22T14:42:38.544Z,78.29
2022-11-22T14:45:11.633Z,77.95
2022-11-22T14:48:00.621Z,77.80
2022-11-22T14:50:33.795Z,77.27
2022-11-22T14:53:39.829Z,77.22
2022-11-22T14:56:23.489Z,76.92
2022-11-22T14:59:17.494Z,77.21
2022-11-22T15:02:06.579Z,77.94
2022-11-22T15:09:13.689Z,77.68
2022-11-22T15:09:21.752Z,77.51
2022-11-22T15:10:44.944Z,77.86
2022-11-22T15:13:50.932Z,78.42
2022-11-22T15:59:47.154Z,78.33
2022-11-22T16:02:30.515Z,78.34
2022-11-22T16:06:08.698Z,78.26
2022-11-22T16:07:52.742Z,78.07
2022-11-22T16:10:23.146Z,78.15
2022-11-22T16:12:50.893Z,78.31
2022-11-22T16:15:38.924Z,78.19
2022-11-22T16:18:27.509Z,78.13
2022-11-22T16:21:07.612Z,78.26
2022-11-22T16:23:35.732Z,78.88
2022-11-22T16:26:25.502Z,79.15
2022-11-22T16:28:54.222Z,79.15
2022-11-22T16:31:31.883Z,79.23
2022-11-22T16:33:59.251Z,79.78
2022-11-22T16:36:29.833Z,79.20
2022-11-22T16:38:56.847Z,79.55
2022-11-22T16:41:23.776Z,79.27
2022-11-22T16:43:54.361Z,79.65
2022-11-22T16:46:21.331Z,79.22
2022-11-22T16:48:48.688Z,79.36
2022-11-22T16:51:24.348Z,78.57
2022-11-22T16:53:53.638Z,79.02
2022-11-22T16:56:22.776Z,78.65
2022-11-22T16:58:50.617Z,78.41
2022-11-22T17:01:20.630Z,78.39
2022-11-22T17:03:49.193Z,78.09
2022-11-22T17:06:18.968Z,78.22
2022-11-22T17:08:51.316Z,77.99
2022-11-22T17:11:20.513Z,78.47
2022-11-22T17:13:47.498Z,78.20
2022-11-22T17:16:14.982Z,78.13
2022-11-22T17:18:41.936Z,77.96
2022-11-22T17:21:32.993Z,77.88
2022-11-22T17:24:06.938Z,78.78
2022-11-22T17:26:35.027Z,78.54
2022-11-22T17:29:02.134Z,78.43
2022-11-22T17:31:29.256Z,78.46
2022-11-22T17:33:58.266Z,78.79
2022-11-22T17:36:30.484Z,78.35
2022-11-22T17:38:58.650Z,78.60
2022-11-22T17:41:26.560Z,78.16
2022-11-22T17:43:53.935Z,78.13
2022-11-22T17:46:21.072Z,78.83
2022-11-22T17:48:59.924Z,78.32
2022-11-22T17:51:30.924Z,78.28
2022-11-22T17:54:01.348Z,77.61
2022-11-22T17:56:30.169Z,77.93
2022-11-22T17:58:57.172Z,77.93
2022-11-22T18:01:24.251Z,77.86
2022-11-22T18:03:51.681Z,78.06
2022-11-22T18:06:21.763Z,78.10
2022-11-22T18:08:48.937Z,78.38
2022-11-22T18:11:16.905Z,79.22
2022-11-22T18:13:44.340Z,79.16
2022-11-22T18:16:14.436Z,79.07
2022-11-22T18:18:56.710Z,78.38
2022-11-22T18:21:25.004Z,78.66
2022-11-22T18:23:52.068Z,78.97
2022-11-22T18:31:53.987Z,78.11
2022-11-22T18:34:22.731Z,78.32
2022-11-22T18:36:55.397Z,78.00
2022-11-22T18:39:24.213Z,77.84
2022-11-22T18:41:51.200Z,78.21
2022-11-22T18:44:18.349Z,78.08
2022-11-22T18:46:45.337Z,77.66
2022-11-22T18:49:12.176Z,78.64
2022-11-22T18:51:39.133Z,78.21
2022-11-22T18:54:06.258Z,78.05
2022-11-22T18:56:38.149Z,77.88
2022-11-22T18:59:06.567Z,78.03
2022-11-22T19:01:34.912Z,77.63
2022-11-22T19:04:03.340Z,78.13
2022-11-22T19:06:30.864Z,78.91
2022-11-22T19:08:58.188Z,78.30
2022-11-22T19:11:25.957Z,78.36
2022-11-22T19:13:53.305Z,77.95
2022-11-22T19:16:22.340Z,78.12
2022-11-22T19:18:50.171Z,77.91
2022-11-22T19:21:19.536Z,77.87
2022-11-22T19:23:47.286Z,78.17
2022-11-22T19:26:16.600Z,77.63
2022-11-22T19:28:43.629Z,77.87
2022-11-22T19:31:16.084Z,78.14
2022-11-22T19:33:43.050Z,77.80
2022-11-22T19:36:18.563Z,77.96
2022-11-22T19:38:46.278Z,78.22
2022-11-22T19:41:18.919Z,78.14
2022-11-22T19:43:46.898Z,77.89
2022-11-22T19:46:14.317Z,77.78
2022-11-22T19:48:47.293Z,77.80
2022-11-22T19:51:15.942Z,77.88
2022-11-22T19:53:43.032Z,77.62
2022-11-22T19:56:16.911Z,77.92
2022-11-22T19:58:45.105Z,78.15
2022-11-22T20:01:14.600Z,78.09
2022-11-22T20:03:42.862Z,77.73
2022-11-22T20:06:12.254Z,77.99
2022-11-22T20:08:39.615Z,77.92
2022-11-22T20:11:11.495Z,78.18
2022-11-22T20:13:41.687Z,78.24
2022-11-22T20:16:17.709Z,78.16
2022-11-22T20:18:44.760Z,78.53
2022-11-22T20:21:12.148Z,77.91
2022-11-22T20:23:39.496Z,78.66
2022-11-22T20:26:12.532Z,78.79
2022-11-22T20:28:40.811Z,78.71
2022-11-22T20:31:09.411Z,78.46
2022-11-22T20:33:38.127Z,78.64
2022-11-22T20:36:07.138Z,78.28
2022-11-22T20:38:35.698Z,78.50
2022-11-22T20:41:02.968Z,78.50
2022-11-22T20:43:34.212Z,78.74
2022-11-22T20:46:15.342Z,78.95
2022-11-22T20:48:44.593Z,79.02
2022-11-22T20:51:14.329Z,79.43
2022-11-22T20:53:42.407Z,79.77
2022-11-22T20:56:10.096Z,80.76
2022-11-22T20:58:37.177Z,80.52
2022-11-22T21:01:19.873Z,81.08
2022-11-22T21:03:47.254Z,81.24
2022-11-22T21:06:15.136Z,81.55
2022-11-22T21:08:42.131Z,81.88
2022-11-22T21:11:26.206Z,82.46
2022-11-22T21:13:53.444Z,83.07
2022-11-22T21:16:26.813Z,82.92
2022-11-22T21:18:55.832Z,82.69
2022-11-22T21:21:24.204Z,83.19
2022-11-22T21:23:59.780Z,83.05
2022-11-22T21:26:27.066Z,82.81
2022-11-22T21:28:54.063Z,82.30
2022-11-22T21:31:22.464Z,82.27
2022-11-22T21:33:49.717Z,82.72
2022-11-22T21:36:16.727Z,83.20
2022-11-22T21:38:44.494Z,83.40
2022-11-22T21:44:07.424Z,83.31
2022-11-22T21:46:34.549Z,83.26
2022-11-22T21:49:01.869Z,83.82
2022-11-22T21:51:28.866Z,83.57
2022-11-22T21:53:59.690Z,83.58
2022-11-22T21:56:26.837Z,83.34
2022-11-22T21:58:53.844Z,82.88
2022-11-22T22:01:20.986Z,83.21
2022-11-22T22:03:48.073Z,83.04
2022-11-22T22:06:15.088Z,83.11
2022-11-22T22:08:42.053Z,83.24
2022-11-22T22:11:09.025Z,83.01
2022-11-22T22:13:36.288Z,83.59
2022-11-22T22:16:06.992Z,83.37
2022-11-22T22:18:34.440Z,83.41
2022-11-22T22:21:06.800Z,83.68
2022-11-22T22:23:34.486Z,83.18
2022-11-22T22:26:03.187Z,83.08
2022-11-22T22:28:31.257Z,83.41
2022-11-22T22:31:06.797Z,83.22
2022-11-22T22:33:34.496Z,82.98
2022-11-22T22:36:01.500Z,83.19
2022-11-22T22:38:30.679Z,82.97
2022-11-22T22:41:02.729Z,83.26
2022-11-22T22:43:32.093Z,83.24
2022-11-22T22:46:26.884Z,83.35
2022-11-22T22:48:55.375Z,83.79
2022-11-22T22:51:32.430Z,83.52
2022-11-22T22:54:01.076Z,83.42
2022-11-22T22:56:29.956Z,83.41
2022-11-22T22:58:57.756Z,83.41
2022-11-22T23:01:26.662Z,82.65
2022-11-22T23:03:57.597Z,82.20
2022-11-22T23:06:26.669Z,82.48
2022-11-22T23:08:54.660Z,82.42
2022-11-22T23:11:43.653Z,81.36
2022-11-22T23:14:12.363Z,82.37
2022-11-22T23:16:39.957Z,81.59
2022-11-22T23:19:07.326Z,81.18
2022-11-22T23:21:34.930Z,80.99
2022-11-22T23:24:02.087Z,80.28
2022-11-22T23:26:29.181Z,82.08
2022-11-22T23:28:56.264Z,82.24
2022-11-22T23:31:23.230Z,82.81
2022-11-22T23:33:50.173Z,82.50
2022-11-22T23:36:19.469Z,82.53
2022-11-22T23:38:46.931Z,82.50
2022-11-22T23:41:15.971Z,81.65
2022-11-22T23:43:43.865Z,81.41
2022-11-22T23:46:17.996Z,81.89
2022-11-22T23:48:46.215Z,81.46
2022-11-22T23:51:13.865Z,81.04
2022-11-22T23:53:40.951Z,80.02
2022-11-22T23:56:12.312Z,81.29
2022-11-22T23:58:39.504Z,81.05
